sensor_id;sensor_type;location;lat;lon;timestamp;P1;durP1;ratioP1;P2;durP2;ratioP2
51780;SDS011;37844;57.126;24.288;2022-10-16T00:00:36;24.42;;;15.35;;
51780;SDS011;37844;57.126;24.288;2022-10-16T00:03:03;30.90;;;17.00;;
51780;SDS011;37844;57.126;24.288;2022-10-16T00:05:29;26.75;;;16.75;;
51780;SDS011;37844;57.126;24.288;2022-10-16T00:07:55;29.80;;;18.38;;
51780;SDS011;37844;57.126;24.288;2022-10-16T00:10:21;24.13;;;16.85;;
51780;SDS011;37844;57.126;24.288;2022-10-16T00:12:46;30.13;;;17.45;;
51780;SDS011;37844;57.126;24.288;2022-10-16T00:15:12;23.58;;;17.40;;
51780;SDS011;37844;57.126;24.288;2022-10-16T00:17:38;24.98;;;16.02;;
51780;SDS011;37844;57.126;24.288;2022-10-16T00:20:03;26.13;;;15.95;;
51780;SDS011;37844;57.126;24.288;2022-10-16T00:22:29;26.58;;;17.05;;
51780;SDS011;37844;57.126;24.288;2022-10-16T00:24:55;26.27;;;16.80;;
51780;SDS011;37844;57.126;24.288;2022-10-16T00:27:20;34.42;;;17.60;;
51780;SDS011;37844;57.126;24.288;2022-10-16T00:29:49;33.50;;;18.63;;
51780;SDS011;37844;57.126;24.288;2022-10-16T00:32:16;28.00;;;16.25;;
51780;SDS011;37844;57.126;24.288;2022-10-16T00:34:42;29.05;;;16.83;;
51780;SDS011;37844;57.126;24.288;2022-10-16T00:37:07;22.75;;;15.50;;
51780;SDS011;37844;57.126;24.288;2022-10-16T00:39:33;20.85;;;15.95;;
51780;SDS011;37844;57.126;24.288;2022-10-16T00:41:58;34.03;;;17.35;;
51780;SDS011;37844;57.126;24.288;2022-10-16T00:47:11;26.30;;;16.85;;
51780;SDS011;37844;57.126;24.288;2022-10-16T00:49:40;25.02;;;16.92;;
51780;SDS011;37844;57.126;24.288;2022-10-16T00:52:06;25.58;;;17.17;;
51780;SDS011;37844;57.126;24.288;2022-10-16T00:54:32;28.90;;;17.00;;
51780;SDS011;37844;57.126;24.288;2022-10-16T00:57:02;24.48;;;16.05;;
51780;SDS011;37844;57.126;24.288;2022-10-16T00:59:31;35.22;;;17.17;;
51780;SDS011;37844;57.126;24.288;2022-10-16T01:02:02;26.35;;;17.92;;
51780;SDS011;37844;57.126;24.288;2022-10-16T01:04:33;34.40;;;18.08;;
51780;SDS011;37844;57.126;24.288;2022-10-16T01:09:51;26.83;;;17.70;;
51780;SDS011;37844;57.126;24.288;2022-10-16T01:12:39;31.65;;;16.67;;
51780;SDS011;37844;57.126;24.288;2022-10-16T01:20:31;25.92;;;17.70;;
51780;SDS011;37844;57.126;24.288;2022-10-16T01:31:40;26.33;;;16.98;;
51780;SDS011;37844;57.126;24.288;2022-10-16T01:34:18;33.20;;;17.70;;
51780;SDS011;37844;57.126;24.288;2022-10-16T01:36:57;24.95;;;15.68;;
51780;SDS011;37844;57.126;24.288;2022-10-16T01:39:30;25.45;;;17.73;;
51780;SDS011;37844;57.126;24.288;2022-10-16T01:42:01;34.45;;;17.27;;
51780;SDS011;37844;57.126;24.288;2022-10-16T01:44:33;27.88;;;18.10;;
51780;SDS011;37844;57.126;24.288;2022-10-16T01:47:01;31.65;;;18.48;;
51780;SDS011;37844;57.126;24.288;2022-10-16T01:49:29;28.00;;;17.83;;
51780;SDS011;37844;57.126;24.288;2022-10-16T01:51:58;24.60;;;17.75;;
51780;SDS011;37844;57.126;24.288;2022-10-16T01:54:27;34.10;;;19.43;;
51780;SDS011;37844;57.126;24.288;2022-10-16T01:56:55;26.58;;;17.02;;
51780;SDS011;37844;57.126;24.288;2022-10-16T01:59:23;27.30;;;17.73;;
51780;SDS011;37844;57.126;24.288;2022-10-16T02:01:55;33.53;;;18.48;;
51780;SDS011;37844;57.126;24.288;2022-10-16T02:04:36;24.45;;;16.58;;
51780;SDS011;37844;57.126;24.288;2022-10-16T02:07:05;29.73;;;18.90;;
51780;SDS011;37844;57.126;24.288;2022-10-16T02:09:32;28.92;;;18.38;;
51780;SDS011;37844;57.126;24.288;2022-10-16T02:12:00;25.83;;;18.45;;
51780;SDS011;37844;57.126;24.288;2022-10-16T02:14:31;36.83;;;20.42;;
51780;SDS011;37844;57.126;24.288;2022-10-16T02:16:57;26.67;;;18.80;;
51780;SDS011;37844;57.126;24.288;2022-10-16T02:19:23;32.35;;;19.10;;
51780;SDS011;37844;57.126;24.288;2022-10-16T02:21:50;33.80;;;22.25;;
51780;SDS011;37844;57.126;24.288;2022-10-16T02:24:24;32.20;;;18.70;;
51780;SDS011;37844;57.126;24.288;2022-10-16T02:27:03;32.83;;;19.30;;
51780;SDS011;37844;57.126;24.288;2022-10-16T02:29:36;26.33;;;18.35;;
51780;SDS011;37844;57.126;24.288;2022-10-16T02:32:09;27.70;;;17.70;;
51780;SDS011;37844;57.126;24.288;2022-10-16T02:34:36;28.15;;;19.05;;
51780;SDS011;37844;57.126;24.288;2022-10-16T02:37:03;34.83;;;21.23;;
51780;SDS011;37844;57.126;24.288;2022-10-16T02:39:30;32.45;;;20.95;;
51780;SDS011;37844;57.126;24.288;2022-10-16T02:41:56;30.73;;;21.63;;
51780;SDS011;37844;57.126;24.288;2022-10-16T02:44:21;33.28;;;21.23;;
51780;SDS011;37844;57.126;24.288;2022-10-16T02:46:47;39.50;;;22.85;;
51780;SDS011;37844;57.126;24.288;2022-10-16T02:49:12;28.48;;;20.20;;
51780;SDS011;37844;57.126;24.288;2022-10-16T02:51:38;32.65;;;19.73;;
51780;SDS011;37844;57.126;24.288;2022-10-16T02:54:03;26.83;;;20.13;;
51780;SDS011;37844;57.126;24.288;2022-10-16T02:56:29;33.35;;;21.52;;
51780;SDS011;37844;57.126;24.288;2022-10-16T02:58:56;32.63;;;20.60;;
51780;SDS011;37844;57.126;24.288;2022-10-16T03:01:21;28.08;;;20.58;;
51780;SDS011;37844;57.126;24.288;2022-10-16T03:03:47;32.55;;;22.05;;
51780;SDS011;37844;57.126;24.288;2022-10-16T03:06:13;32.30;;;20.67;;
51780;SDS011;37844;57.126;24.288;2022-10-16T03:08:38;33.55;;;21.80;;
51780;SDS011;37844;57.126;24.288;2022-10-16T03:11:04;47.10;;;21.85;;
51780;SDS011;37844;57.126;24.288;2022-10-16T03:13:30;33.70;;;22.85;;
51780;SDS011;37844;57.126;24.288;2022-10-16T03:15:55;38.35;;;23.45;;
51780;SDS011;37844;57.126;24.288;2022-10-16T03:18:21;41.50;;;23.55;;
51780;SDS011;37844;57.126;24.288;2022-10-16T03:20:46;43.17;;;25.42;;
51780;SDS011;37844;57.126;24.288;2022-10-16T03:23:12;35.33;;;24.77;;
51780;SDS011;37844;57.126;24.288;2022-10-16T03:25:38;32.75;;;23.42;;
51780;SDS011;37844;57.126;24.288;2022-10-16T03:28:04;39.70;;;24.40;;
51780;SDS011;37844;57.126;24.288;2022-10-16T03:30:30;39.33;;;25.67;;
51780;SDS011;37844;57.126;24.288;2022-10-16T03:32:55;37.58;;;25.80;;
51780;SDS011;37844;57.126;24.288;2022-10-16T03:35:21;35.90;;;25.38;;
51780;SDS011;37844;57.126;24.288;2022-10-16T03:37:47;33.17;;;22.95;;
51780;SDS011;37844;57.126;24.288;2022-10-16T03:40:12;40.83;;;24.08;;
51780;SDS011;37844;57.126;24.288;2022-10-16T03:42:38;31.98;;;23.35;;
51780;SDS011;37844;57.126;24.288;2022-10-16T03:45:04;32.40;;;23.70;;
51780;SDS011;37844;57.126;24.288;2022-10-16T03:47:30;40.35;;;23.10;;
51780;SDS011;37844;57.126;24.288;2022-10-16T03:49:58;35.75;;;24.30;;
51780;SDS011;37844;57.126;24.288;2022-10-16T03:52:23;33.53;;;23.95;;
51780;SDS011;37844;57.126;24.288;2022-10-16T03:54:49;51.38;;;25.75;;
51780;SDS011;37844;57.126;24.288;2022-10-16T03:57:14;36.33;;;24.88;;
51780;SDS011;37844;57.126;24.288;2022-10-16T03:59:40;40.33;;;25.83;;
51780;SDS011;37844;57.126;24.288;2022-10-16T04:02:05;40.35;;;25.58;;
51780;SDS011;37844;57.126;24.288;2022-10-16T04:04:31;43.33;;;25.33;;
51780;SDS011;37844;57.126;24.288;2022-10-16T04:06:56;33.33;;;25.33;;
51780;SDS011;37844;57.126;24.288;2022-10-16T04:09:21;39.42;;;23.23;;
51780;SDS011;37844;57.126;24.288;2022-10-16T04:11:47;39.63;;;26.33;;
51780;SDS011;37844;57.126;24.288;2022-10-16T04:14:12;39.38;;;26.08;;
51780;SDS011;37844;57.126;24.288;2022-10-16T04:16:38;37.63;;;25.67;;
51780;SDS011;37844;57.126;24.288;2022-10-16T04:19:03;37.72;;;24.70;;
51780;SDS011;37844;57.126;24.288;2022-10-16T04:21:29;37.90;;;26.23;;
51780;SDS011;37844;57.126;24.288;2022-10-16T04:23:54;37.28;;;27.75;;
51780;SDS011;37844;57.126;24.288;2022-10-16T04:26:20;38.53;;;26.58;;
51780;SDS011;37844;57.126;24.288;2022-10-16T04:28:45;40.10;;;24.90;;
51780;SDS011;37844;57.126;24.288;2022-10-16T04:31:10;41.67;;;24.42;;
51780;SDS011;37844;57.126;24.288;2022-10-16T04:33:36;37.80;;;26.63;;
51780;SDS011;37844;57.126;24.288;2022-10-16T04:36:02;37.80;;;28.38;;
51780;SDS011;37844;57.126;24.288;2022-10-16T04:38:28;41.45;;;28.05;;
51780;SDS011;37844;57.126;24.288;2022-10-16T04:40:54;44.97;;;29.00;;
51780;SDS011;37844;57.126;24.288;2022-10-16T04:43:20;31.70;;;23.58;;
51780;SDS011;37844;57.126;24.288;2022-10-16T04:45:46;39.03;;;26.67;;
51780;SDS011;37844;57.126;24.288;2022-10-16T04:48:11;37.75;;;25.52;;
51780;SDS011;37844;57.126;24.288;2022-10-16T04:50:37;46.30;;;30.50;;
51780;SDS011;37844;57.126;24.288;2022-10-16T04:53:02;40.08;;;26.80;;
51780;SDS011;37844;57.126;24.288;2022-10-16T04:55:28;36.75;;;25.48;;
51780;SDS011;37844;57.126;24.288;2022-10-16T04:57:54;37.10;;;26.98;;
51780;SDS011;37844;57.126;24.288;2022-10-16T05:00:19;39.92;;;27.20;;
51780;SDS011;37844;57.126;24.288;2022-10-16T05:02:45;37.22;;;25.08;;
51780;SDS011;37844;57.126;24.288;2022-10-16T05:05:10;40.60;;;26.98;;
51780;SDS011;37844;57.126;24.288;2022-10-16T05:07:36;41.42;;;27.02;;
51780;SDS011;37844;57.126;24.288;2022-10-16T05:10:02;40.90;;;26.13;;
51780;SDS011;37844;57.126;24.288;2022-10-16T05:12:28;53.00;;;37.67;;
51780;SDS011;37844;57.126;24.288;2022-10-16T05:14:53;39.35;;;27.23;;
51780;SDS011;37844;57.126;24.288;2022-10-16T05:17:23;36.40;;;23.52;;
51780;SDS011;37844;57.126;24.288;2022-10-16T05:19:51;35.38;;;25.45;;
51780;SDS011;37844;57.126;24.288;2022-10-16T05:22:17;41.92;;;25.42;;
51780;SDS011;37844;57.126;24.288;2022-10-16T05:24:56;39.30;;;24.15;;
51780;SDS011;37844;57.126;24.288;2022-10-16T05:27:22;40.65;;;23.80;;
51780;SDS011;37844;57.126;24.288;2022-10-16T05:29:47;35.55;;;24.83;;
51780;SDS011;37844;57.126;24.288;2022-10-16T05:32:14;45.40;;;25.48;;
51780;SDS011;37844;57.126;24.288;2022-10-16T05:34:40;37.53;;;25.58;;
51780;SDS011;37844;57.126;24.288;2022-10-16T05:37:06;34.90;;;23.77;;
51780;SDS011;37844;57.126;24.288;2022-10-16T05:39:32;41.10;;;27.10;;
51780;SDS011;37844;57.126;24.288;2022-10-16T05:41:57;39.08;;;27.13;;
51780;SDS011;37844;57.126;24.288;2022-10-16T05:44:23;50.92;;;28.50;;
51780;SDS011;37844;57.126;24.288;2022-10-16T05:46:48;39.08;;;25.63;;
51780;SDS011;37844;57.126;24.288;2022-10-16T05:49:14;41.75;;;24.88;;
51780;SDS011;37844;57.126;24.288;2022-10-16T05:51:39;43.70;;;27.27;;
51780;SDS011;37844;57.126;24.288;2022-10-16T05:54:06;38.65;;;25.30;;
51780;SDS011;37844;57.126;24.288;2022-10-16T05:56:31;37.65;;;24.88;;
51780;SDS011;37844;57.126;24.288;2022-10-16T05:58:57;43.13;;;26.38;;
51780;SDS011;37844;57.126;24.288;2022-10-16T06:01:22;46.03;;;25.27;;
51780;SDS011;37844;57.126;24.288;2022-10-16T06:03:49;45.80;;;27.08;;
51780;SDS011;37844;57.126;24.288;2022-10-16T06:06:16;45.40;;;27.35;;
51780;SDS011;37844;57.126;24.288;2022-10-16T06:08:44;49.30;;;29.17;;
51780;SDS011;37844;57.126;24.288;2022-10-16T06:11:12;49.08;;;28.50;;
51780;SDS011;37844;57.126;24.288;2022-10-16T06:13:41;47.13;;;29.52;;
51780;SDS011;37844;57.126;24.288;2022-10-16T06:16:08;50.67;;;29.02;;
51780;SDS011;37844;57.126;24.288;2022-10-16T06:18:34;41.25;;;27.00;;
51780;SDS011;37844;57.126;24.288;2022-10-16T06:20:59;48.20;;;28.73;;
51780;SDS011;37844;57.126;24.288;2022-10-16T06:23:33;43.80;;;29.20;;
51780;SDS011;37844;57.126;24.288;2022-10-16T06:26:09;47.63;;;29.15;;
51780;SDS011;37844;57.126;24.288;2022-10-16T06:28:37;47.15;;;29.70;;
51780;SDS011;37844;57.126;24.288;2022-10-16T06:31:03;43.28;;;28.48;;
51780;SDS011;37844;57.126;24.288;2022-10-16T06:33:30;47.65;;;29.80;;
51780;SDS011;37844;57.126;24.288;2022-10-16T06:36:03;47.65;;;32.72;;
51780;SDS011;37844;57.126;24.288;2022-10-16T06:38:31;52.55;;;32.28;;
51780;SDS011;37844;57.126;24.288;2022-10-16T06:40:57;56.33;;;32.75;;
51780;SDS011;37844;57.126;24.288;2022-10-16T06:43:23;55.13;;;33.80;;
51780;SDS011;37844;57.126;24.288;2022-10-16T06:45:52;46.88;;;32.55;;
51780;SDS011;37844;57.126;24.288;2022-10-16T06:50:44;49.05;;;32.85;;
51780;SDS011;37844;57.126;24.288;2022-10-16T06:53:19;52.90;;;33.50;;
51780;SDS011;37844;57.126;24.288;2022-10-16T06:55:44;49.75;;;31.55;;
51780;SDS011;37844;57.126;24.288;2022-10-16T06:58:10;50.97;;;31.27;;
51780;SDS011;37844;57.126;24.288;2022-10-16T07:00:35;47.97;;;31.88;;
51780;SDS011;37844;57.126;24.288;2022-10-16T07:03:01;49.20;;;31.83;;
51780;SDS011;37844;57.126;24.288;2022-10-16T07:05:26;52.10;;;33.92;;
51780;SDS011;37844;57.126;24.288;2022-10-16T07:07:51;51.42;;;32.28;;
51780;SDS011;37844;57.126;24.288;2022-10-16T07:10:17;50.45;;;33.00;;
51780;SDS011;37844;57.126;24.288;2022-10-16T07:12:42;49.28;;;31.52;;
51780;SDS011;37844;57.126;24.288;2022-10-16T07:15:10;49.70;;;33.45;;
51780;SDS011;37844;57.126;24.288;2022-10-16T07:17:35;49.28;;;33.55;;
51780;SDS011;37844;57.126;24.288;2022-10-16T07:20:01;42.83;;;32.05;;
51780;SDS011;37844;57.126;24.288;2022-10-16T07:22:28;53.42;;;33.58;;
51780;SDS011;37844;57.126;24.288;2022-10-16T07:24:53;54.03;;;33.88;;
51780;SDS011;37844;57.126;24.288;2022-10-16T07:27:19;53.40;;;34.25;;
51780;SDS011;37844;57.126;24.288;2022-10-16T07:29:47;52.45;;;35.30;;
51780;SDS011;37844;57.126;24.288;2022-10-16T07:32:12;52.60;;;33.22;;
51780;SDS011;37844;57.126;24.288;2022-10-16T07:34:38;54.90;;;35.30;;
51780;SDS011;37844;57.126;24.288;2022-10-16T07:37:03;58.53;;;36.28;;
51780;SDS011;37844;57.126;24.288;2022-10-16T07:39:29;61.60;;;34.42;;
51780;SDS011;37844;57.126;24.288;2022-10-16T07:41:54;59.38;;;35.50;;
51780;SDS011;37844;57.126;24.288;2022-10-16T07:44:19;51.72;;;33.33;;
51780;SDS011;37844;57.126;24.288;2022-10-16T07:46:45;74.35;;;41.10;;
51780;SDS011;37844;57.126;24.288;2022-10-16T07:49:11;56.20;;;37.20;;
51780;SDS011;37844;57.126;24.288;2022-10-16T07:51:36;61.03;;;37.13;;
51780;SDS011;37844;57.126;24.288;2022-10-16T07:54:03;60.10;;;37.40;;
51780;SDS011;37844;57.126;24.288;2022-10-16T07:56:30;59.55;;;38.20;;
51780;SDS011;37844;57.126;24.288;2022-10-16T07:58:56;64.63;;;37.25;;
51780;SDS011;37844;57.126;24.288;2022-10-16T08:01:21;53.28;;;35.92;;
51780;SDS011;37844;57.126;24.288;2022-10-16T08:03:47;58.53;;;36.97;;
51780;SDS011;37844;57.126;24.288;2022-10-16T08:06:15;54.28;;;35.10;;
51780;SDS011;37844;57.126;24.288;2022-10-16T08:08:41;59.53;;;39.60;;
51780;SDS011;37844;57.126;24.288;2022-10-16T08:11:07;59.53;;;37.15;;
51780;SDS011;37844;57.126;24.288;2022-10-16T08:13:33;61.13;;;39.40;;
51780;SDS011;37844;57.126;24.288;2022-10-16T08:15:58;60.42;;;40.80;;
51780;SDS011;37844;57.126;24.288;2022-10-16T08:18:24;54.88;;;33.75;;
51780;SDS011;37844;57.126;24.288;2022-10-16T08:20:57;57.47;;;36.92;;
51780;SDS011;37844;57.126;24.288;2022-10-16T08:23:25;51.15;;;36.92;;
51780;SDS011;37844;57.126;24.288;2022-10-16T08:25:51;53.97;;;37.42;;
51780;SDS011;37844;57.126;24.288;2022-10-16T08:28:18;57.80;;;39.10;;
51780;SDS011;37844;57.126;24.288;2022-10-16T08:30:44;52.67;;;35.78;;
51780;SDS011;37844;57.126;24.288;2022-10-16T08:33:09;53.30;;;35.83;;
51780;SDS011;37844;57.126;24.288;2022-10-16T08:35:35;48.45;;;33.15;;
51780;SDS011;37844;57.126;24.288;2022-10-16T08:38:02;59.63;;;38.60;;
51780;SDS011;37844;57.126;24.288;2022-10-16T08:40:29;59.35;;;39.42;;
51780;SDS011;37844;57.126;24.288;2022-10-16T08:49:03;52.97;;;37.05;;
51780;SDS011;37844;57.126;24.288;2022-10-16T08:51:34;51.13;;;34.30;;
51780;SDS011;37844;57.126;24.288;2022-10-16T08:54:03;50.97;;;36.88;;
51780;SDS011;37844;57.126;24.288;2022-10-16T08:56:48;53.78;;;37.30;;
51780;SDS011;37844;57.126;24.288;2022-10-16T08:59:13;53.15;;;37.10;;
51780;SDS011;37844;57.126;24.288;2022-10-16T09:01:42;57.67;;;37.40;;
51780;SDS011;37844;57.126;24.288;2022-10-16T09:07:02;50.55;;;36.20;;
51780;SDS011;37844;57.126;24.288;2022-10-16T09:12:25;49.10;;;35.03;;
51780;SDS011;37844;57.126;24.288;2022-10-16T09:18:02;51.20;;;38.60;;
51780;SDS011;37844;57.126;24.288;2022-10-16T09:20:51;51.33;;;36.67;;
51780;SDS011;37844;57.126;24.288;2022-10-16T09:23:26;61.30;;;37.53;;
51780;SDS011;37844;57.126;24.288;2022-10-16T09:25:54;62.08;;;38.08;;
51780;SDS011;37844;57.126;24.288;2022-10-16T09:28:20;53.17;;;36.35;;
51780;SDS011;37844;57.126;24.288;2022-10-16T09:30:46;59.20;;;38.92;;
51780;SDS011;37844;57.126;24.288;2022-10-16T09:33:14;56.03;;;37.53;;
51780;SDS011;37844;57.126;24.288;2022-10-16T09:35:45;52.35;;;37.00;;
51780;SDS011;37844;57.126;24.288;2022-10-16T09:38:25;56.88;;;39.83;;
51780;SDS011;37844;57.126;24.288;2022-10-16T09:40:59;56.00;;;38.08;;
51780;SDS011;37844;57.126;24.288;2022-10-16T09:43:27;53.13;;;37.75;;
51780;SDS011;37844;57.126;24.288;2022-10-16T09:49:00;60.55;;;39.85;;
51780;SDS011;37844;57.126;24.288;2022-10-16T09:51:31;57.55;;;40.35;;
51780;SDS011;37844;57.126;24.288;2022-10-16T09:56:35;60.08;;;41.15;;
51780;SDS011;37844;57.126;24.288;2022-10-16T09:59:17;56.30;;;37.38;;
51780;SDS011;37844;57.126;24.288;2022-10-16T10:01:50;54.88;;;38.90;;
51780;SDS011;37844;57.126;24.288;2022-10-16T10:04:21;52.63;;;37.70;;
51780;SDS011;37844;57.126;24.288;2022-10-16T10:06:50;55.92;;;39.50;;
51780;SDS011;37844;57.126;24.288;2022-10-16T10:09:32;54.70;;;38.33;;
51780;SDS011;37844;57.126;24.288;2022-10-16T10:12:04;59.90;;;42.17;;
51780;SDS011;37844;57.126;24.288;2022-10-16T10:14:37;60.35;;;39.10;;
51780;SDS011;37844;57.126;24.288;2022-10-16T10:27:21;67.30;;;44.83;;
51780;SDS011;37844;57.126;24.288;2022-10-16T10:29:56;63.05;;;42.33;;
51780;SDS011;37844;57.126;24.288;2022-10-16T10:32:37;64.63;;;41.95;;
51780;SDS011;37844;57.126;24.288;2022-10-16T10:38:00;62.83;;;40.10;;
51780;SDS011;37844;57.126;24.288;2022-10-16T10:40:54;63.13;;;41.92;;
51780;SDS011;37844;57.126;24.288;2022-10-16T10:46:19;61.10;;;39.63;;
51780;SDS011;37844;57.126;24.288;2022-10-16T10:49:14;57.80;;;40.05;;
51780;SDS011;37844;57.126;24.288;2022-10-16T10:55:37;60.08;;;38.03;;
51780;SDS011;37844;57.126;24.288;2022-10-16T11:11:43;62.05;;;39.03;;
51780;SDS011;37844;57.126;24.288;2022-10-16T11:24:49;60.35;;;35.35;;
51780;SDS011;37844;57.126;24.288;2022-10-16T11:27:22;57.67;;;35.80;;
51780;SDS011;37844;57.126;24.288;2022-10-16T11:30:02;52.08;;;33.78;;
51780;SDS011;37844;57.126;24.288;2022-10-16T11:32:33;54.22;;;34.90;;
51780;SDS011;37844;57.126;24.288;2022-10-16T11:35:15;47.63;;;34.72;;
51780;SDS011;37844;57.126;24.288;2022-10-16T11:37:47;52.00;;;33.05;;
51780;SDS011;37844;57.126;24.288;2022-10-16T11:40:25;51.13;;;34.00;;
51780;SDS011;37844;57.126;24.288;2022-10-16T11:42:57;50.08;;;33.83;;
51780;SDS011;37844;57.126;24.288;2022-10-16T11:45:41;46.10;;;31.42;;
51780;SDS011;37844;57.126;24.288;2022-10-16T11:48:23;46.88;;;33.03;;
51780;SDS011;37844;57.126;24.288;2022-10-16T11:51:20;50.45;;;33.55;;
51780;SDS011;37844;57.126;24.288;2022-10-16T11:56:16;51.88;;;34.75;;
51780;SDS011;37844;57.126;24.288;2022-10-16T12:01:18;46.28;;;32.22;;
51780;SDS011;37844;57.126;24.288;2022-10-16T12:06:40;46.42;;;32.50;;
51780;SDS011;37844;57.126;24.288;2022-10-16T12:09:15;49.60;;;31.80;;
51780;SDS011;37844;57.126;24.288;2022-10-16T12:11:53;44.50;;;32.65;;
51780;SDS011;37844;57.126;24.288;2022-10-16T12:16:57;44.08;;;32.05;;
51780;SDS011;37844;57.126;24.288;2022-10-16T12:19:29;46.25;;;33.25;;
51780;SDS011;37844;57.126;24.288;2022-10-16T12:21:59;43.67;;;33.05;;
51780;SDS011;37844;57.126;24.288;2022-10-16T12:27:00;44.10;;;32.47;;
51780;SDS011;37844;57.126;24.288;2022-10-16T12:29:40;45.05;;;34.67;;
51780;SDS011;37844;57.126;24.288;2022-10-16T12:34:54;47.38;;;33.15;;
51780;SDS011;37844;57.126;24.288;2022-10-16T12:37:21;50.95;;;32.50;;
51780;SDS011;37844;57.126;24.288;2022-10-16T12:39:50;45.13;;;31.90;;
51780;SDS011;37844;57.126;24.288;2022-10-16T12:44:53;49.53;;;32.60;;
51780;SDS011;37844;57.126;24.288;2022-10-16T12:49:55;51.97;;;34.65;;
51780;SDS011;37844;57.126;24.288;2022-10-16T12:52:25;47.05;;;33.45;;
51780;SDS011;37844;57.126;24.288;2022-10-16T12:54:59;40.88;;;29.77;;
51780;SDS011;37844;57.126;24.288;2022-10-16T13:14:02;43.10;;;30.93;;
51780;SDS011;37844;57.126;24.288;2022-10-16T13:19:06;44.25;;;29.42;;
51780;SDS011;37844;57.126;24.288;2022-10-16T13:21:44;51.40;;;31.38;;
51780;SDS011;37844;57.126;24.288;2022-10-16T13:26:57;52.83;;;31.52;;
51780;SDS011;37844;57.126;24.288;2022-10-16T13:29:32;52.17;;;33.10;;
51780;SDS011;37844;57.126;24.288;2022-10-16T13:31:59;44.35;;;30.27;;
51780;SDS011;37844;57.126;24.288;2022-10-16T13:34:26;47.28;;;32.00;;
51780;SDS011;37844;57.126;24.288;2022-10-16T13:36:53;50.45;;;30.58;;
51780;SDS011;37844;57.126;24.288;2022-10-16T13:39:23;46.15;;;32.38;;
51780;SDS011;37844;57.126;24.288;2022-10-16T13:42:06;49.90;;;29.35;;
51780;SDS011;37844;57.126;24.288;2022-10-16T13:44:48;42.28;;;28.98;;
51780;SDS011;37844;57.126;24.288;2022-10-16T13:49:41;63.17;;;35.10;;
51780;SDS011;37844;57.126;24.288;2022-10-16T13:52:15;43.83;;;30.05;;
51780;SDS011;37844;57.126;24.288;2022-10-16T13:54:43;58.63;;;34.42;;
51780;SDS011;37844;57.126;24.288;2022-10-16T13:57:11;43.38;;;29.25;;
51780;SDS011;37844;57.126;24.288;2022-10-16T13:59:38;46.90;;;31.83;;
51780;SDS011;37844;57.126;24.288;2022-10-16T14:02:38;45.90;;;30.35;;
51780;SDS011;37844;57.126;24.288;2022-10-16T14:05:00;42.88;;;28.42;;
51780;SDS011;37844;57.126;24.288;2022-10-16T14:07:29;41.60;;;30.00;;
51780;SDS011;37844;57.126;24.288;2022-10-16T14:09:58;40.33;;;29.67;;
51780;SDS011;37844;57.126;24.288;2022-10-16T14:12:27;43.08;;;27.70;;
51780;SDS011;37844;57.126;24.288;2022-10-16T14:14:53;44.50;;;29.33;;
51780;SDS011;37844;57.126;24.288;2022-10-16T14:17:22;37.42;;;26.52;;
51780;SDS011;37844;57.126;24.288;2022-10-16T14:19:50;40.17;;;28.30;;
51780;SDS011;37844;57.126;24.288;2022-10-16T14:22:32;41.47;;;29.08;;
51780;SDS011;37844;57.126;24.288;2022-10-16T14:24:59;34.85;;;26.92;;
51780;SDS011;37844;57.126;24.288;2022-10-16T14:30:15;47.03;;;30.92;;
51780;SDS011;37844;57.126;24.288;2022-10-16T14:32:53;39.88;;;30.10;;
51780;SDS011;37844;57.126;24.288;2022-10-16T14:35:27;39.90;;;27.98;;
51780;SDS011;37844;57.126;24.288;2022-10-16T14:37:54;43.83;;;29.55;;
51780;SDS011;37844;57.126;24.288;2022-10-16T14:40:23;43.33;;;28.88;;
51780;SDS011;37844;57.126;24.288;2022-10-16T14:42:50;37.45;;;27.77;;
51780;SDS011;37844;57.126;24.288;2022-10-16T14:45:19;36.55;;;27.23;;
51780;SDS011;37844;57.126;24.288;2022-10-16T14:47:50;37.05;;;26.75;;
51780;SDS011;37844;57.126;24.288;2022-10-16T14:50:25;40.05;;;25.75;;
51780;SDS011;37844;57.126;24.288;2022-10-16T14:52:51;38.50;;;27.88;;
51780;SDS011;37844;57.126;24.288;2022-10-16T14:55:16;38.47;;;28.00;;
51780;SDS011;37844;57.126;24.288;2022-10-16T14:57:43;44.92;;;27.73;;
51780;SDS011;37844;57.126;24.288;2022-10-16T15:00:15;34.13;;;27.55;;
51780;SDS011;37844;57.126;24.288;2022-10-16T15:02:48;37.65;;;26.65;;
51780;SDS011;37844;57.126;24.288;2022-10-16T15:07:43;42.40;;;30.15;;
51780;SDS011;37844;57.126;24.288;2022-10-16T15:10:09;52.35;;;31.77;;
51780;SDS011;37844;57.126;24.288;2022-10-16T15:12:35;44.33;;;29.55;;
51780;SDS011;37844;57.126;24.288;2022-10-16T15:15:00;42.25;;;29.30;;
51780;SDS011;37844;57.126;24.288;2022-10-16T15:17:26;37.00;;;28.55;;
51780;SDS011;37844;57.126;24.288;2022-10-16T15:19:51;50.13;;;30.83;;
51780;SDS011;37844;57.126;24.288;2022-10-16T15:22:17;44.75;;;31.17;;
51780;SDS011;37844;57.126;24.288;2022-10-16T15:24:43;40.80;;;29.13;;
51780;SDS011;37844;57.126;24.288;2022-10-16T15:27:08;44.17;;;31.33;;
51780;SDS011;37844;57.126;24.288;2022-10-16T15:29:34;45.28;;;32.60;;
51780;SDS011;37844;57.126;24.288;2022-10-16T15:31:59;54.67;;;34.00;;
51780;SDS011;37844;57.126;24.288;2022-10-16T15:34:25;44.75;;;32.72;;
51780;SDS011;37844;57.126;24.288;2022-10-16T15:36:50;38.17;;;29.42;;
51780;SDS011;37844;57.126;24.288;2022-10-16T15:39:17;46.60;;;32.20;;
51780;SDS011;37844;57.126;24.288;2022-10-16T15:41:44;42.58;;;31.83;;
51780;SDS011;37844;57.126;24.288;2022-10-16T15:44:15;46.05;;;32.90;;
51780;SDS011;37844;57.126;24.288;2022-10-16T15:46:45;42.90;;;32.37;;
51780;SDS011;37844;57.126;24.288;2022-10-16T15:49:11;41.28;;;30.75;;
51780;SDS011;37844;57.126;24.288;2022-10-16T15:51:40;40.25;;;30.38;;
51780;SDS011;37844;57.126;24.288;2022-10-16T15:54:06;38.55;;;28.17;;
51780;SDS011;37844;57.126;24.288;2022-10-16T15:56:33;41.08;;;29.17;;
51780;SDS011;37844;57.126;24.288;2022-10-16T15:58:59;35.80;;;28.45;;
51780;SDS011;37844;57.126;24.288;2022-10-16T16:01:26;41.70;;;30.17;;
51780;SDS011;37844;57.126;24.288;2022-10-16T16:04:05;45.42;;;28.40;;
51780;SDS011;37844;57.126;24.288;2022-10-16T16:06:31;43.00;;;31.05;;
51780;SDS011;37844;57.126;24.288;2022-10-16T16:08:57;33.92;;;28.00;;
51780;SDS011;37844;57.126;24.288;2022-10-16T16:11:24;36.28;;;28.13;;
51780;SDS011;37844;57.126;24.288;2022-10-16T16:13:50;38.70;;;28.50;;
51780;SDS011;37844;57.126;24.288;2022-10-16T16:16:16;32.85;;;25.27;;
51780;SDS011;37844;57.126;24.288;2022-10-16T16:18:43;33.30;;;24.60;;
51780;SDS011;37844;57.126;24.288;2022-10-16T16:21:12;40.25;;;28.58;;
51780;SDS011;37844;57.126;24.288;2022-10-16T16:23:38;35.05;;;26.20;;
51780;SDS011;37844;57.126;24.288;2022-10-16T16:26:21;36.05;;;26.58;;
51780;SDS011;37844;57.126;24.288;2022-10-16T16:28:52;31.13;;;23.55;;
51780;SDS011;37844;57.126;24.288;2022-10-16T16:31:19;34.90;;;24.95;;
51780;SDS011;37844;57.126;24.288;2022-10-16T16:33:45;28.80;;;22.58;;